createdAt,value
2019-05-22T00:02:35.527Z,18.50
2019-05-22T00:05:18.111Z,18.50
2019-05-22T00:07:47.950Z,18.50
2019-05-22T00:10:26.068Z,18.50
2019-05-22T00:12:58.032Z,18.40
2019-05-22T00:15:29.266Z,18.40
2019-05-22T00:17:59.232Z,18.40
2019-05-22T00:20:29.493Z,18.30
2019-05-22T00:23:01.878Z,18.40
2019-05-22T00:25:33.369Z,18.30
2019-05-22T00:28:03.125Z,18.30
2019-05-22T00:30:35.786Z,18.30
2019-05-22T00:33:08.122Z,18.40
2019-05-22T00:35:38.498Z,18.40
2019-05-22T00:38:09.415Z,18.20
2019-05-22T00:40:44.925Z,18.30
2019-05-22T00:43:16.952Z,18.20
2019-05-22T00:45:49.611Z,18.20
2019-05-22T00:48:23.538Z,18.10
2019-05-22T00:51:15.426Z,18.10
2019-05-22T00:53:58.416Z,18.00
2019-05-22T00:56:51.108Z,18.00
2019-05-22T00:59:26.754Z,18.00
2019-05-22T01:01:59.583Z,18.10
2019-05-22T01:04:34.840Z,18.10
2019-05-22T01:07:09.181Z,18.00
2019-05-22T01:09:41.767Z,17.90
2019-05-22T01:12:17.267Z,17.90
2019-05-22T01:14:46.979Z,17.80
2019-05-22T01:17:17.602Z,17.80
2019-05-22T01:19:51.188Z,17.70
2019-05-22T01:22:22.943Z,17.70
2019-05-22T01:24:56.695Z,17.80
2019-05-22T01:27:27.425Z,17.80
2019-05-22T01:29:57.782Z,17.80
2019-05-22T01:32:34.557Z,17.60
2019-05-22T01:35:04.725Z,17.70
2019-05-22T01:37:36.727Z,17.60
2019-05-22T01:40:27.584Z,17.60
2019-05-22T01:42:59.303Z,17.50
2019-05-22T01:45:30.862Z,17.50
2019-05-22T01:48:10.859Z,17.50
2019-05-22T01:50:49.205Z,17.50
2019-05-22T01:53:21.473Z,17.50
2019-05-22T01:55:57.146Z,17.40
2019-05-22T01:58:28.033Z,17.40
2019-05-22T02:00:58.923Z,17.30
2019-05-22T02:03:30.259Z,17.40
2019-05-22T02:06:00.726Z,17.30
2019-05-22T02:08:32.314Z,17.30
2019-05-22T02:11:02.273Z,17.30
2019-05-22T02:13:40.262Z,17.30
2019-05-22T02:16:11.590Z,17.30
2019-05-22T02:18:43.593Z,17.20
2019-05-22T02:21:13.267Z,17.30
2019-05-22T02:23:43.688Z,17.30
2019-05-22T02:26:13.391Z,17.30
2019-05-22T02:28:43.228Z,17.30
2019-05-22T02:31:17.096Z,17.30
2019-05-22T02:34:03.816Z,17.30
2019-05-22T02:36:37.083Z,17.30
2019-05-22T02:39:18.062Z,17.40
2019-05-22T02:41:52.408Z,17.30
2019-05-22T02:44:22.920Z,17.30
2019-05-22T02:46:53.216Z,17.30
2019-05-22T02:49:23.929Z,17.20
2019-05-22T02:51:54.109Z,17.10
2019-05-22T02:54:23.996Z,17.20
2019-05-22T02:56:54.002Z,17.20
2019-05-22T02:59:24.040Z,17.20
2019-05-22T03:01:54.864Z,17.20
2019-05-22T03:04:25.194Z,17.10
2019-05-22T03:06:55.177Z,17.00
2019-05-22T03:09:27.765Z,16.90
2019-05-22T03:12:01.343Z,16.90
2019-05-22T03:14:32.911Z,16.90
2019-05-22T03:17:05.279Z,16.90
2019-05-22T03:19:41.214Z,16.90
2019-05-22T03:22:21.161Z,16.90
2019-05-22T03:24:51.838Z,16.80
2019-05-22T03:27:29.034Z,16.80
2019-05-22T03:29:58.715Z,16.80
2019-05-22T03:32:28.459Z,16.80
2019-05-22T03:34:58.499Z,16.90
2019-05-22T03:37:28.575Z,16.80
2019-05-22T03:39:58.644Z,16.70
2019-05-22T03:42:28.326Z,16.70
2019-05-22T03:44:57.931Z,16.70
2019-05-22T03:47:28.508Z,16.60
2019-05-22T03:49:58.784Z,16.60
2019-05-22T03:52:28.187Z,16.60
2019-05-22T03:54:57.605Z,16.60
2019-05-22T03:57:29.121Z,16.60
2019-05-22T03:59:59.105Z,16.60
2019-05-22T04:02:28.916Z,16.50
2019-05-22T04:04:58.868Z,16.40
2019-05-22T04:07:28.532Z,16.50
2019-05-22T04:09:58.129Z,16.50
2019-05-22T04:12:27.740Z,16.60
2019-05-22T04:14:58.008Z,16.60
2019-05-22T04:17:28.496Z,16.50
2019-05-22T04:19:58.151Z,16.50
2019-05-22T04:22:27.653Z,16.40
2019-05-22T04:24:57.592Z,16.40
2019-05-22T04:27:28.025Z,16.30
2019-05-22T04:29:57.530Z,16.40
2019-05-22T04:32:30.455Z,16.40
2019-05-22T04:35:12.730Z,16.40
2019-05-22T04:37:43.130Z,16.30
2019-05-22T04:40:57.983Z,16.20
2019-05-22T04:43:33.799Z,16.20
2019-05-22T04:46:06.386Z,16.10
2019-05-22T04:48:37.665Z,16.10
2019-05-22T04:51:28.229Z,16.00
2019-05-22T04:53:58.605Z,16.10
2019-05-22T04:56:29.747Z,16.00
2019-05-22T04:59:01.983Z,15.90
2019-05-22T05:01:32.244Z,16.00
2019-05-22T05:04:02.849Z,16.00
2019-05-22T05:06:35.581Z,16.00
2019-05-22T05:09:10.652Z,16.00
2019-05-22T05:11:42.357Z,15.80
2019-05-22T05:14:12.285Z,15.60
2019-05-22T05:16:42.066Z,15.60
2019-05-22T05:19:11.666Z,15.60
2019-05-22T05:21:41.522Z,15.50
2019-05-22T05:24:11.365Z,15.50
2019-05-22T05:26:41.121Z,15.60
2019-05-22T05:29:26.649Z,15.50
2019-05-22T05:31:56.880Z,15.60
2019-05-22T05:34:45.910Z,15.60
2019-05-22T05:37:18.560Z,15.50
2019-05-22T05:40:27.582Z,15.50
2019-05-22T05:42:58.237Z,15.50
2019-05-22T05:45:28.521Z,15.50
2019-05-22T05:47:59.499Z,15.50
2019-05-22T05:50:39.383Z,15.50
2019-05-22T05:53:03.499Z,15.50
2019-05-22T05:56:01.079Z,15.50
2019-05-22T05:58:32.224Z,15.50
2019-05-22T06:01:13.043Z,15.50
2019-05-22T06:03:43.379Z,15.50
2019-05-22T06:06:54.003Z,15.40
2019-05-22T06:09:24.203Z,15.40
2019-05-22T06:12:00.105Z,15.40
2019-05-22T06:14:32.075Z,15.20
2019-05-22T06:17:44.987Z,15.20
2019-05-22T06:20:19.271Z,15.20
2019-05-22T06:23:32.023Z,15.20
2019-05-22T06:26:02.790Z,15.10
2019-05-22T06:28:35.916Z,15.10
2019-05-22T06:31:06.526Z,15.00
2019-05-22T06:33:37.462Z,15.00
2019-05-22T06:36:12.755Z,15.00
2019-05-22T06:39:07.088Z,15.00
2019-05-22T06:41:38.540Z,15.10
2019-05-22T06:44:40.848Z,15.00
2019-05-22T06:47:17.490Z,15.00
2019-05-22T06:49:49.033Z,14.90
2019-05-22T06:52:19.328Z,14.90
2019-05-22T06:54:49.578Z,14.80
2019-05-22T06:57:25.617Z,14.70
2019-05-22T07:00:13.195Z,14.60
2019-05-22T07:02:50.239Z,14.60
2019-05-22T07:05:24.120Z,14.70
2019-05-22T07:07:57.288Z,14.60
2019-05-22T07:10:29.317Z,14.60
2019-05-22T07:13:02.062Z,14.60
2019-05-22T07:15:40.782Z,14.70
2019-05-22T07:18:13.164Z,14.60
2019-05-22T07:20:44.861Z,14.60
2019-05-22T07:23:20.595Z,14.70
2019-05-22T07:25:51.946Z,14.70
2019-05-22T07:28:22.529Z,14.70
2019-05-22T07:30:53.839Z,14.70
2019-05-22T07:33:24.561Z,14.70
2019-05-22T07:36:09.514Z,14.70
2019-05-22T07:38:26.822Z,14.60
2019-05-22T07:40:57.093Z,14.60
2019-05-22T07:43:27.505Z,14.50
2019-05-22T07:45:57.713Z,14.60
2019-05-22T07:48:29.019Z,14.60
2019-05-22T07:51:00.418Z,14.70
2019-05-22T07:53:30.421Z,14.50
2019-05-22T07:56:05.113Z,14.60
2019-05-22T07:58:35.870Z,14.40
2019-05-22T08:01:06.384Z,14.50
2019-05-22T08:03:37.333Z,14.60
2019-05-22T08:06:08.430Z,14.60
2019-05-22T08:08:39.845Z,14.60
2019-05-22T08:11:11.321Z,14.60
2019-05-22T08:13:43.553Z,14.50
2019-05-22T08:16:13.544Z,14.50
2019-05-22T08:18:43.687Z,14.40
2019-05-22T08:21:13.318Z,14.50
2019-05-22T08:23:43.129Z,14.40
2019-05-22T08:26:14.874Z,14.50
2019-05-22T08:28:44.851Z,14.50
2019-05-22T08:31:15.741Z,14.40
2019-05-22T08:33:46.285Z,14.40
2019-05-22T08:36:16.192Z,14.40
2019-05-22T08:38:46.606Z,14.50
2019-05-22T08:41:18.852Z,14.50
2019-05-22T08:44:13.986Z,14.60
2019-05-22T08:46:20.824Z,14.60
2019-05-22T08:48:51.698Z,14.60
2019-05-22T08:51:21.865Z,14.70
2019-05-22T08:53:53.053Z,14.60
2019-05-22T08:56:23.493Z,14.60
2019-05-22T08:58:54.196Z,14.60
2019-05-22T09:01:24.813Z,14.70
2019-05-22T09:03:54.711Z,14.60
2019-05-22T09:06:24.516Z,14.50
2019-05-22T09:08:54.265Z,14.50
2019-05-22T09:11:23.994Z,14.50
2019-05-22T09:13:53.752Z,14.60
2019-05-22T09:16:25.035Z,14.60
2019-05-22T09:18:54.802Z,14.60
2019-05-22T09:21:26.476Z,14.70
2019-05-22T09:23:56.639Z,14.60
2019-05-22T09:26:27.577Z,14.70
2019-05-22T09:28:57.160Z,14.60
2019-05-22T09:31:26.871Z,14.60
2019-05-22T09:33:56.505Z,14.50
2019-05-22T09:36:26.072Z,14.60
2019-05-22T09:38:56.069Z,14.60
2019-05-22T09:41:25.807Z,14.50
2019-05-22T09:43:56.146Z,14.50
2019-05-22T09:46:26.390Z,14.60
2019-05-22T09:48:57.481Z,14.50
2019-05-22T09:51:27.491Z,14.50
2019-05-22T09:53:57.896Z,14.60
2019-05-22T09:56:29.369Z,14.50
2019-05-22T09:58:59.137Z,14.60
2019-05-22T10:01:29.010Z,14.50
2019-05-22T10:03:58.836Z,14.50
2019-05-22T10:06:28.318Z,14.60
2019-05-22T10:08:58.307Z,14.50
2019-05-22T10:11:28.001Z,14.60
2019-05-22T10:13:57.483Z,14.60
2019-05-22T10:16:27.109Z,14.50
2019-05-22T10:18:56.830Z,14.60
2019-05-22T10:21:27.073Z,14.60
2019-05-22T10:23:57.603Z,14.50
2019-05-22T10:26:27.187Z,14.50
2019-05-22T10:28:57.095Z,14.50
2019-05-22T10:31:27.141Z,14.50
2019-05-22T10:33:57.413Z,14.60
2019-05-22T10:36:26.946Z,14.70
2019-05-22T10:38:56.829Z,14.70
2019-05-22T10:41:26.744Z,14.60
2019-05-22T10:43:56.757Z,14.50
2019-05-22T10:46:26.585Z,14.50
2019-05-22T10:48:56.648Z,14.50
2019-05-22T10:51:26.580Z,14.50
2019-05-22T10:53:56.293Z,14.60
2019-05-22T10:56:27.316Z,14.60
2019-05-22T10:58:57.205Z,14.60
2019-05-22T11:01:27.517Z,14.60
2019-05-22T11:03:57.774Z,14.60
2019-05-22T11:06:27.446Z,14.50
2019-05-22T11:08:58.268Z,14.60
2019-05-22T11:11:29.458Z,14.50
2019-05-22T11:14:01.985Z,14.50
2019-05-22T11:16:31.878Z,14.50
2019-05-22T11:19:04.139Z,14.40
2019-05-22T11:21:34.677Z,14.50
2019-05-22T11:24:04.759Z,14.40
2019-05-22T11:26:34.626Z,14.40
2019-05-22T11:29:05.969Z,14.30
2019-05-22T11:31:35.726Z,14.30
2019-05-22T11:34:06.545Z,14.30
2019-05-22T11:36:36.275Z,14.30
2019-05-22T11:39:08.934Z,14.30
2019-05-22T11:41:39.300Z,14.30
2019-05-22T11:44:09.324Z,14.40
2019-05-22T11:46:39.834Z,14.40
2019-05-22T11:49:09.665Z,14.40
2019-05-22T11:51:39.428Z,14.40
2019-05-22T11:54:10.041Z,14.40
2019-05-22T11:56:40.203Z,14.40
2019-05-22T11:59:11.227Z,14.40
2019-05-22T12:01:41.021Z,14.40
2019-05-22T12:04:13.053Z,14.40
2019-05-22T12:06:43.918Z,14.40
2019-05-22T12:09:15.349Z,14.40
2019-05-22T12:11:45.156Z,14.40
2019-05-22T12:14:16.290Z,14.50
2019-05-22T12:16:46.435Z,14.50
2019-05-22T12:19:16.575Z,14.60
2019-05-22T12:21:46.299Z,14.60
2019-05-22T12:24:26.952Z,14.60
2019-05-22T12:26:48.404Z,14.50
2019-05-22T12:29:19.011Z,14.50
2019-05-22T12:31:49.204Z,14.50
2019-05-22T12:34:19.326Z,14.50
2019-05-22T12:36:51.421Z,14.50
2019-05-22T12:39:23.410Z,14.50
2019-05-22T12:41:53.622Z,14.50
2019-05-22T12:44:23.791Z,14.50
2019-05-22T12:46:54.240Z,14.40
2019-05-22T12:49:26.938Z,14.40
2019-05-22T12:51:56.870Z,14.40
2019-05-22T12:54:36.782Z,14.40
2019-05-22T12:56:58.121Z,14.50
2019-05-22T12:59:28.886Z,14.50
2019-05-22T13:01:59.054Z,14.40
2019-05-22T13:04:30.935Z,14.40
2019-05-22T13:07:01.615Z,14.40
2019-05-22T13:09:32.083Z,14.50
2019-05-22T13:12:01.786Z,14.50
2019-05-22T13:14:31.430Z,14.40
2019-05-22T13:17:01.432Z,14.40
2019-05-22T13:19:33.220Z,14.40
2019-05-22T13:22:04.487Z,14.40
2019-05-22T13:24:36.658Z,14.40
2019-05-22T13:27:09.741Z,14.40
2019-05-22T13:29:40.601Z,14.40
2019-05-22T13:32:12.171Z,14.40
2019-05-22T13:34:42.405Z,14.30
2019-05-22T13:37:12.318Z,14.20
2019-05-22T13:39:42.161Z,14.30
2019-05-22T13:42:13.591Z,14.40
2019-05-22T13:44:43.400Z,14.40
2019-05-22T13:47:13.135Z,14.30
2019-05-22T13:49:45.018Z,14.40
2019-05-22T13:52:15.983Z,14.40
2019-05-22T13:54:46.086Z,14.40
2019-05-22T13:57:15.925Z,14.40
2019-05-22T13:59:45.746Z,14.40
2019-05-22T14:02:15.458Z,14.40
2019-05-22T14:04:45.086Z,14.30
2019-05-22T14:07:14.696Z,14.40
2019-05-22T14:09:44.409Z,14.40
2019-05-22T14:12:14.063Z,14.40
2019-05-22T14:14:43.870Z,14.40
2019-05-22T14:17:13.576Z,14.40
2019-05-22T14:19:43.226Z,14.40
2019-05-22T14:22:24.939Z,14.30
2019-05-22T14:24:54.413Z,14.30
2019-05-22T14:27:24.779Z,14.40
2019-05-22T14:29:54.790Z,14.30
2019-05-22T14:32:29.682Z,14.30
2019-05-22T14:34:56.396Z,14.30
2019-05-22T14:37:26.292Z,14.20
2019-05-22T14:39:56.261Z,14.20
2019-05-22T14:42:27.179Z,14.20
2019-05-22T14:44:57.295Z,14.30
2019-05-22T14:47:27.315Z,14.30
2019-05-22T14:49:57.201Z,14.30
2019-05-22T14:52:27.191Z,14.30
2019-05-22T14:54:57.289Z,14.30
2019-05-22T14:57:27.030Z,14.30
2019-05-22T14:59:57.808Z,14.40
2019-05-22T15:02:27.783Z,14.30
2019-05-22T15:04:58.320Z,14.30
2019-05-22T15:07:28.114Z,14.30
2019-05-22T15:09:57.723Z,14.30
2019-05-22T15:12:27.724Z,14.30
2019-05-22T15:14:57.205Z,14.20
2019-05-22T15:17:32.638Z,14.20
2019-05-22T15:19:59.045Z,14.10
2019-05-22T15:22:29.135Z,14.20
2019-05-22T15:24:59.345Z,14.20
2019-05-22T15:27:29.722Z,14.30
2019-05-22T15:29:59.584Z,14.20
2019-05-22T15:32:29.454Z,14.20
2019-05-22T15:34:58.963Z,14.20
2019-05-22T15:37:29.738Z,14.20
2019-05-22T15:40:00.034Z,14.20
2019-05-22T15:42:38.851Z,14.20
2019-05-22T15:45:14.299Z,14.20
2019-05-22T15:47:54.554Z,14.20
2019-05-22T15:50:21.086Z,14.20
2019-05-22T15:52:53.570Z,14.20
2019-05-22T15:55:25.337Z,14.20
2019-05-22T15:57:58.280Z,14.20
2019-05-22T16:00:31.493Z,14.30
2019-05-22T16:03:10.802Z,14.30
2019-05-22T16:05:42.200Z,14.20
2019-05-22T16:08:13.369Z,14.20
2019-05-22T16:10:44.802Z,14.20
2019-05-22T16:13:16.266Z,14.10
2019-05-22T16:15:48.481Z,14.20
2019-05-22T16:18:20.132Z,14.10
2019-05-22T16:20:50.826Z,14.10
2019-05-22T16:23:21.979Z,14.20
2019-05-22T16:25:53.456Z,14.20
2019-05-22T16:28:24.815Z,14.10
2019-05-22T16:30:56.405Z,14.10
2019-05-22T16:33:27.071Z,14.10
2019-05-22T16:35:56.931Z,14.10
2019-05-22T16:38:27.302Z,14.10
2019-05-22T16:40:57.884Z,14.10
2019-05-22T16:43:47.325Z,14.10
2019-05-22T16:46:00.291Z,14.10
2019-05-22T16:48:30.224Z,14.10
2019-05-22T16:51:00.700Z,14.10
2019-05-22T16:53:31.365Z,14.10
2019-05-22T16:56:01.533Z,14.10
2019-05-22T16:58:31.555Z,14.10
2019-05-22T17:01:01.188Z,14.10
2019-05-22T17:03:31.196Z,14.10
2019-05-22T17:06:01.183Z,14.10
2019-05-22T17:08:31.708Z,14.10
2019-05-22T17:11:03.633Z,14.10
2019-05-22T17:13:33.393Z,14.10
2019-05-22T17:16:03.618Z,14.20
2019-05-22T17:18:46.845Z,14.20
2019-05-22T17:21:07.403Z,14.20
2019-05-22T17:23:37.250Z,14.10
2019-05-22T17:26:07.624Z,14.10
2019-05-22T17:28:38.069Z,14.10
2019-05-22T17:31:08.423Z,14.10
2019-05-22T17:33:37.974Z,14.10
2019-05-22T17:36:07.896Z,14.00
2019-05-22T17:38:38.855Z,14.10
2019-05-22T17:41:10.193Z,14.00
2019-05-22T17:43:40.802Z,14.00
2019-05-22T17:46:11.736Z,14.00
2019-05-22T17:48:42.204Z,14.00
2019-05-22T17:51:12.650Z,14.00
2019-05-22T17:53:42.954Z,14.10
2019-05-22T17:56:12.739Z,14.00
2019-05-22T17:58:42.414Z,14.00
2019-05-22T18:01:12.173Z,14.00
2019-05-22T18:03:42.095Z,14.10
2019-05-22T18:06:12.633Z,14.00
2019-05-22T18:08:42.274Z,14.10
2019-05-22T18:11:12.613Z,14.10
2019-05-22T18:13:59.805Z,14.10
2019-05-22T18:16:30.466Z,14.10
2019-05-22T18:19:00.885Z,14.10
2019-05-22T18:21:32.163Z,14.10
2019-05-22T18:24:02.003Z,14.10
2019-05-22T18:26:31.645Z,14.00
2019-05-22T18:29:01.363Z,14.00
2019-05-22T18:31:31.027Z,14.10
2019-05-22T18:34:00.650Z,14.00
2019-05-22T18:36:30.181Z,14.00
2019-05-22T18:38:59.711Z,14.10
2019-05-22T18:41:29.291Z,14.10
2019-05-22T18:43:59.111Z,14.10
2019-05-22T18:46:28.883Z,14.00
2019-05-22T18:48:58.491Z,14.10
2019-05-22T18:51:28.505Z,14.10
2019-05-22T18:53:58.595Z,14.10
2019-05-22T18:56:28.168Z,14.10
2019-05-22T18:58:57.853Z,14.00
2019-05-22T19:01:27.632Z,14.10
2019-05-22T19:03:57.572Z,14.10
2019-05-22T19:06:30.715Z,14.10
2019-05-22T19:08:59.520Z,14.10
2019-05-22T19:11:29.362Z,14.10
2019-05-22T19:13:59.099Z,14.10
2019-05-22T19:16:28.822Z,14.10
2019-05-22T19:18:58.264Z,14.10
2019-05-22T19:21:28.036Z,14.00
2019-05-22T19:23:57.458Z,14.10
2019-05-22T19:26:26.945Z,14.00
2019-05-22T19:28:56.830Z,14.10
2019-05-22T19:31:26.706Z,14.10
2019-05-22T19:33:59.271Z,14.10
2019-05-22T19:36:28.888Z,14.00
2019-05-22T19:38:58.399Z,14.10
2019-05-22T19:41:28.194Z,14.00
2019-05-22T19:43:57.975Z,14.00
2019-05-22T19:46:27.527Z,14.00
2019-05-22T19:48:58.772Z,14.00
2019-05-22T19:51:28.655Z,14.00
2019-05-22T19:53:58.866Z,14.10
2019-05-22T19:56:28.313Z,14.10
2019-05-22T19:58:58.409Z,14.00
2019-05-22T20:01:29.909Z,14.00
2019-05-22T20:03:59.904Z,14.00
2019-05-22T20:06:29.851Z,14.10
2019-05-22T20:08:59.857Z,14.00
2019-05-22T20:11:29.831Z,14.00
2019-05-22T20:14:00.010Z,14.00
2019-05-22T20:16:29.729Z,14.00
2019-05-22T20:18:59.619Z,14.00
2019-05-22T20:21:29.767Z,14.00
2019-05-22T20:23:59.291Z,13.90
2019-05-22T20:26:28.966Z,13.90
2019-05-22T20:28:58.947Z,13.90
2019-05-22T20:31:28.762Z,13.90
2019-05-22T20:33:58.824Z,13.80
2019-05-22T20:36:28.625Z,13.80
2019-05-22T20:38:58.282Z,13.80
2019-05-22T20:41:28.673Z,13.80
2019-05-22T20:43:59.569Z,13.90
2019-05-22T20:46:30.749Z,13.90
2019-05-22T20:49:00.718Z,13.90
2019-05-22T20:51:31.105Z,13.90
2019-05-22T20:54:02.244Z,13.90
2019-05-22T20:56:33.974Z,13.90
2019-05-22T20:59:03.786Z,13.80
2019-05-22T21:01:33.829Z,13.90
2019-05-22T21:04:06.362Z,13.80
2019-05-22T21:06:40.108Z,13.80
2019-05-22T21:09:10.014Z,13.80
2019-05-22T21:11:40.464Z,13.70
2019-05-22T21:14:10.934Z,13.80
2019-05-22T21:16:41.182Z,13.80
2019-05-22T21:19:11.355Z,13.80
2019-05-22T21:21:41.087Z,13.70
2019-05-22T21:24:12.384Z,13.70
2019-05-22T21:26:43.907Z,13.70
2019-05-22T21:29:13.831Z,13.80
2019-05-22T21:31:47.546Z,13.80
2019-05-22T21:34:15.997Z,13.80
2019-05-22T21:36:45.583Z,13.80
2019-05-22T21:39:16.898Z,13.80
2019-05-22T21:41:46.821Z,13.80
2019-05-22T21:44:16.717Z,13.70
2019-05-22T21:46:46.495Z,13.70
2019-05-22T21:49:18.833Z,13.70
2019-05-22T21:51:48.522Z,13.70
2019-05-22T21:54:18.459Z,13.70
2019-05-22T21:56:47.895Z,13.70
2019-05-22T21:59:17.856Z,13.70
2019-05-22T22:01:55.561Z,13.70
2019-05-22T22:04:34.947Z,13.70
2019-05-22T22:07:05.079Z,13.70
2019-05-22T22:09:35.370Z,13.70
2019-05-22T22:12:06.980Z,13.70
2019-05-22T22:14:38.060Z,13.70
2019-05-22T22:17:09.136Z,13.60
2019-05-22T22:19:39.061Z,13.60
2019-05-22T22:22:11.725Z,13.70
2019-05-22T22:24:41.342Z,13.60
2019-05-22T22:27:11.701Z,13.60
2019-05-22T22:29:41.834Z,13.60
2019-05-22T22:32:13.106Z,13.70
2019-05-22T22:34:47.457Z,13.70
2019-05-22T22:37:18.017Z,13.70
2019-05-22T22:39:54.176Z,13.60
2019-05-22T22:42:26.499Z,13.70
2019-05-22T22:44:57.464Z,13.60
2019-05-22T22:47:44.040Z,13.70
2019-05-22T22:50:13.791Z,13.70
2019-05-22T22:52:45.645Z,13.60
2019-05-22T22:55:18.952Z,13.60
2019-05-22T22:57:50.820Z,13.60
2019-05-22T23:00:29.029Z,13.60
2019-05-22T23:02:59.870Z,13.60
2019-05-22T23:05:29.912Z,13.60
2019-05-22T23:08:00.987Z,13.60
2019-05-22T23:10:31.248Z,13.60
2019-05-22T23:13:01.240Z,13.60
2019-05-22T23:15:31.611Z,13.60
2019-05-22T23:18:02.070Z,13.60
2019-05-22T23:20:31.288Z,13.50
2019-05-22T23:22:59.405Z,13.50
2019-05-22T23:25:29.501Z,13.50
2019-05-22T23:27:59.219Z,13.50
2019-05-22T23:30:29.512Z,13.50
2019-05-22T23:32:59.015Z,13.50
2019-05-22T23:35:29.333Z,13.50
2019-05-22T23:37:58.991Z,13.50
2019-05-22T23:40:33.019Z,13.50
2019-05-22T23:43:02.955Z,13.40
2019-05-22T23:45:33.657Z,13.40
2019-05-22T23:48:11.947Z,13.40
2019-05-22T23:50:43.150Z,13.40
2019-05-22T23:53:13.459Z,13.30
2019-05-22T23:55:43.950Z,13.40
2019-05-22T23:58:16.190Z,13.40
